sensor_id;sensor_type;location;lat;lon;timestamp;P1;durP1;ratioP1;P2;durP2;ratioP2
35372;SDS011;21476;51.652;7.852;2022-08-03T00:01:36;7.10;;;3.80;;
35372;SDS011;21476;51.652;7.852;2022-08-03T00:04:04;5.85;;;3.50;;
35372;SDS011;21476;51.652;7.852;2022-08-03T00:06:30;5.07;;;3.08;;
35372;SDS011;21476;51.652;7.852;2022-08-03T00:08:56;6.70;;;4.00;;
35372;SDS011;21476;51.652;7.852;2022-08-03T00:11:22;8.90;;;4.05;;
35372;SDS011;21476;51.652;7.852;2022-08-03T00:13:47;7.13;;;3.78;;
35372;SDS011;21476;51.652;7.852;2022-08-03T00:16:13;6.53;;;3.67;;
35372;SDS011;21476;51.652;7.852;2022-08-03T00:18:39;6.72;;;3.47;;
35372;SDS011;21476;51.652;7.852;2022-08-03T00:21:05;9.25;;;4.03;;
35372;SDS011;21476;51.652;7.852;2022-08-03T00:23:31;6.95;;;4.10;;
35372;SDS011;21476;51.652;7.852;2022-08-03T00:25:57;5.05;;;3.58;;
35372;SDS011;21476;51.652;7.852;2022-08-03T00:28:23;5.75;;;3.47;;
35372;SDS011;21476;51.652;7.852;2022-08-03T00:30:48;6.22;;;4.05;;
35372;SDS011;21476;51.652;7.852;2022-08-03T00:33:14;7.90;;;4.05;;
35372;SDS011;21476;51.652;7.852;2022-08-03T00:35:40;7.45;;;3.17;;
35372;SDS011;21476;51.652;7.852;2022-08-03T00:38:05;7.22;;;3.88;;
35372;SDS011;21476;51.652;7.852;2022-08-03T00:40:31;6.88;;;3.83;;
35372;SDS011;21476;51.652;7.852;2022-08-03T00:42:58;5.28;;;4.18;;
35372;SDS011;21476;51.652;7.852;2022-08-03T00:45:30;5.43;;;3.80;;
35372;SDS011;21476;51.652;7.852;2022-08-03T00:47:57;6.35;;;4.13;;
35372;SDS011;21476;51.652;7.852;2022-08-03T00:50:23;5.25;;;3.97;;
35372;SDS011;21476;51.652;7.852;2022-08-03T00:52:51;8.35;;;3.90;;
35372;SDS011;21476;51.652;7.852;2022-08-03T00:55:18;6.47;;;4.07;;
35372;SDS011;21476;51.652;7.852;2022-08-03T00:57:44;5.40;;;3.67;;
35372;SDS011;21476;51.652;7.852;2022-08-03T01:00:11;6.18;;;3.92;;
35372;SDS011;21476;51.652;7.852;2022-08-03T01:02:39;7.22;;;3.67;;
35372;SDS011;21476;51.652;7.852;2022-08-03T01:05:05;9.35;;;4.50;;
35372;SDS011;21476;51.652;7.852;2022-08-03T01:07:45;7.15;;;3.90;;
35372;SDS011;21476;51.652;7.852;2022-08-03T01:10:39;7.03;;;4.22;;
35372;SDS011;21476;51.652;7.852;2022-08-03T01:13:14;10.18;;;4.03;;
35372;SDS011;21476;51.652;7.852;2022-08-03T01:15:45;5.88;;;3.97;;
35372;SDS011;21476;51.652;7.852;2022-08-03T01:18:23;7.82;;;4.63;;
35372;SDS011;21476;51.652;7.852;2022-08-03T01:20:54;6.72;;;4.75;;
35372;SDS011;21476;51.652;7.852;2022-08-03T01:26:36;7.68;;;3.80;;
35372;SDS011;21476;51.652;7.852;2022-08-03T01:31:42;6.45;;;4.32;;
35372;SDS011;21476;51.652;7.852;2022-08-03T01:34:13;7.35;;;4.13;;
35372;SDS011;21476;51.652;7.852;2022-08-03T01:36:47;6.22;;;4.10;;
35372;SDS011;21476;51.652;7.852;2022-08-03T01:39:15;7.60;;;4.78;;
35372;SDS011;21476;51.652;7.852;2022-08-03T01:41:47;7.70;;;4.07;;
35372;SDS011;21476;51.652;7.852;2022-08-03T01:44:17;6.05;;;4.07;;
35372;SDS011;21476;51.652;7.852;2022-08-03T01:46:44;8.15;;;4.30;;
35372;SDS011;21476;51.652;7.852;2022-08-03T01:49:14;9.10;;;4.35;;
35372;SDS011;21476;51.652;7.852;2022-08-03T01:51:41;7.47;;;5.18;;
35372;SDS011;21476;51.652;7.852;2022-08-03T01:54:11;7.72;;;4.45;;
35372;SDS011;21476;51.652;7.852;2022-08-03T01:56:38;6.93;;;3.92;;
35372;SDS011;21476;51.652;7.852;2022-08-03T01:59:05;5.28;;;3.97;;
35372;SDS011;21476;51.652;7.852;2022-08-03T02:01:32;5.10;;;3.80;;
35372;SDS011;21476;51.652;7.852;2022-08-03T02:04:00;7.35;;;4.20;;
35372;SDS011;21476;51.652;7.852;2022-08-03T02:06:28;6.50;;;4.22;;
35372;SDS011;21476;51.652;7.852;2022-08-03T02:08:56;6.20;;;4.32;;
35372;SDS011;21476;51.652;7.852;2022-08-03T02:11:25;5.88;;;4.13;;
35372;SDS011;21476;51.652;7.852;2022-08-03T02:13:51;8.60;;;4.47;;
35372;SDS011;21476;51.652;7.852;2022-08-03T02:16:18;7.30;;;4.53;;
35372;SDS011;21476;51.652;7.852;2022-08-03T02:18:47;6.20;;;4.25;;
35372;SDS011;21476;51.652;7.852;2022-08-03T02:21:13;6.45;;;4.75;;
35372;SDS011;21476;51.652;7.852;2022-08-03T02:23:39;7.32;;;4.93;;
35372;SDS011;21476;51.652;7.852;2022-08-03T02:26:06;7.13;;;4.78;;
35372;SDS011;21476;51.652;7.852;2022-08-03T02:28:37;7.88;;;4.53;;
35372;SDS011;21476;51.652;7.852;2022-08-03T02:31:06;6.10;;;4.20;;
35372;SDS011;21476;51.652;7.852;2022-08-03T02:33:40;7.38;;;4.20;;
35372;SDS011;21476;51.652;7.852;2022-08-03T02:36:07;6.20;;;4.15;;
35372;SDS011;21476;51.652;7.852;2022-08-03T02:38:37;7.15;;;4.40;;
35372;SDS011;21476;51.652;7.852;2022-08-03T02:41:11;7.18;;;4.63;;
35372;SDS011;21476;51.652;7.852;2022-08-03T02:43:40;7.28;;;4.20;;
35372;SDS011;21476;51.652;7.852;2022-08-03T02:46:09;6.95;;;4.13;;
35372;SDS011;21476;51.652;7.852;2022-08-03T02:48:38;5.55;;;4.05;;
35372;SDS011;21476;51.652;7.852;2022-08-03T02:51:06;7.68;;;4.15;;
35372;SDS011;21476;51.652;7.852;2022-08-03T02:53:33;5.18;;;4.00;;
35372;SDS011;21476;51.652;7.852;2022-08-03T02:56:00;9.60;;;4.18;;
35372;SDS011;21476;51.652;7.852;2022-08-03T02:58:28;10.48;;;4.22;;
35372;SDS011;21476;51.652;7.852;2022-08-03T03:00:56;10.43;;;5.03;;
35372;SDS011;21476;51.652;7.852;2022-08-03T03:03:22;7.30;;;3.78;;
35372;SDS011;21476;51.652;7.852;2022-08-03T03:05:49;7.05;;;4.93;;
35372;SDS011;21476;51.652;7.852;2022-08-03T03:08:16;10.18;;;4.90;;
35372;SDS011;21476;51.652;7.852;2022-08-03T03:10:44;7.05;;;4.53;;
35372;SDS011;21476;51.652;7.852;2022-08-03T03:13:10;7.82;;;4.97;;
35372;SDS011;21476;51.652;7.852;2022-08-03T03:15:39;8.35;;;4.72;;
35372;SDS011;21476;51.652;7.852;2022-08-03T03:18:05;9.20;;;4.97;;
35372;SDS011;21476;51.652;7.852;2022-08-03T03:20:34;10.15;;;5.18;;
35372;SDS011;21476;51.652;7.852;2022-08-03T03:23:03;8.75;;;4.47;;
35372;SDS011;21476;51.652;7.852;2022-08-03T03:25:30;7.93;;;4.82;;
35372;SDS011;21476;51.652;7.852;2022-08-03T03:27:57;7.28;;;4.65;;
35372;SDS011;21476;51.652;7.852;2022-08-03T03:30:26;8.18;;;4.68;;
35372;SDS011;21476;51.652;7.852;2022-08-03T03:32:53;7.63;;;4.85;;
35372;SDS011;21476;51.652;7.852;2022-08-03T03:35:19;8.80;;;5.97;;
35372;SDS011;21476;51.652;7.852;2022-08-03T03:37:45;7.40;;;4.82;;
35372;SDS011;21476;51.652;7.852;2022-08-03T03:40:11;6.78;;;4.93;;
35372;SDS011;21476;51.652;7.852;2022-08-03T03:42:37;7.55;;;5.07;;
35372;SDS011;21476;51.652;7.852;2022-08-03T03:45:06;10.05;;;5.47;;
35372;SDS011;21476;51.652;7.852;2022-08-03T03:47:33;10.15;;;5.70;;
35372;SDS011;21476;51.652;7.852;2022-08-03T03:50:00;7.95;;;5.05;;
35372;SDS011;21476;51.652;7.852;2022-08-03T03:52:26;6.70;;;4.93;;
35372;SDS011;21476;51.652;7.852;2022-08-03T03:54:52;8.70;;;5.32;;
35372;SDS011;21476;51.652;7.852;2022-08-03T03:57:18;7.53;;;4.40;;
35372;SDS011;21476;51.652;7.852;2022-08-03T03:59:43;7.93;;;4.75;;
35372;SDS011;21476;51.652;7.852;2022-08-03T04:02:10;8.98;;;4.80;;
35372;SDS011;21476;51.652;7.852;2022-08-03T04:04:36;5.30;;;4.22;;
35372;SDS011;21476;51.652;7.852;2022-08-03T04:07:25;5.97;;;4.72;;
35372;SDS011;21476;51.652;7.852;2022-08-03T04:10:10;11.32;;;5.40;;
35372;SDS011;21476;51.652;7.852;2022-08-03T04:12:58;6.57;;;4.38;;
35372;SDS011;21476;51.652;7.852;2022-08-03T04:15:26;7.15;;;4.97;;
35372;SDS011;21476;51.652;7.852;2022-08-03T04:17:54;7.65;;;5.45;;
35372;SDS011;21476;51.652;7.852;2022-08-03T04:20:23;8.60;;;5.40;;
35372;SDS011;21476;51.652;7.852;2022-08-03T04:22:53;8.65;;;5.07;;
35372;SDS011;21476;51.652;7.852;2022-08-03T04:25:20;6.55;;;4.65;;
35372;SDS011;21476;51.652;7.852;2022-08-03T04:27:51;7.47;;;4.63;;
35372;SDS011;21476;51.652;7.852;2022-08-03T04:30:19;9.35;;;6.28;;
35372;SDS011;21476;51.652;7.852;2022-08-03T04:32:46;6.95;;;4.85;;
35372;SDS011;21476;51.652;7.852;2022-08-03T04:35:17;6.75;;;4.75;;
35372;SDS011;21476;51.652;7.852;2022-08-03T04:37:44;10.02;;;5.53;;
35372;SDS011;21476;51.652;7.852;2022-08-03T04:40:13;6.63;;;4.93;;
35372;SDS011;21476;51.652;7.852;2022-08-03T04:42:42;6.50;;;4.18;;
35372;SDS011;21476;51.652;7.852;2022-08-03T04:45:10;7.68;;;4.57;;
35372;SDS011;21476;51.652;7.852;2022-08-03T04:47:37;5.13;;;3.88;;
35372;SDS011;21476;51.652;7.852;2022-08-03T04:50:04;7.18;;;4.60;;
35372;SDS011;21476;51.652;7.852;2022-08-03T04:52:31;6.88;;;3.60;;
35372;SDS011;21476;51.652;7.852;2022-08-03T04:54:58;4.65;;;3.20;;
35372;SDS011;21476;51.652;7.852;2022-08-03T04:57:24;7.43;;;3.33;;
35372;SDS011;21476;51.652;7.852;2022-08-03T04:59:53;5.03;;;3.10;;
35372;SDS011;21476;51.652;7.852;2022-08-03T05:02:20;5.82;;;3.33;;
35372;SDS011;21476;51.652;7.852;2022-08-03T05:04:46;8.30;;;3.30;;
35372;SDS011;21476;51.652;7.852;2022-08-03T05:07:13;4.75;;;2.80;;
35372;SDS011;21476;51.652;7.852;2022-08-03T05:09:39;10.00;;;3.17;;
35372;SDS011;21476;51.652;7.852;2022-08-03T05:12:05;5.88;;;2.75;;
35372;SDS011;21476;51.652;7.852;2022-08-03T05:14:32;5.63;;;3.40;;
35372;SDS011;21476;51.652;7.852;2022-08-03T05:16:58;5.45;;;3.17;;
35372;SDS011;21476;51.652;7.852;2022-08-03T05:19:24;9.80;;;3.53;;
35372;SDS011;21476;51.652;7.852;2022-08-03T05:21:49;5.50;;;3.50;;
35372;SDS011;21476;51.652;7.852;2022-08-03T05:24:15;9.45;;;4.05;;
35372;SDS011;21476;51.652;7.852;2022-08-03T05:26:41;5.60;;;4.10;;
35372;SDS011;21476;51.652;7.852;2022-08-03T05:29:07;7.78;;;3.78;;
35372;SDS011;21476;51.652;7.852;2022-08-03T05:31:32;7.03;;;3.47;;
35372;SDS011;21476;51.652;7.852;2022-08-03T05:33:58;7.65;;;3.63;;
35372;SDS011;21476;51.652;7.852;2022-08-03T05:36:23;9.60;;;3.75;;
35372;SDS011;21476;51.652;7.852;2022-08-03T05:38:49;9.02;;;3.58;;
35372;SDS011;21476;51.652;7.852;2022-08-03T05:41:15;7.22;;;3.67;;
35372;SDS011;21476;51.652;7.852;2022-08-03T05:43:40;11.10;;;3.72;;
35372;SDS011;21476;51.652;7.852;2022-08-03T05:46:06;11.85;;;4.15;;
35372;SDS011;21476;51.652;7.852;2022-08-03T05:48:32;6.60;;;3.78;;
35372;SDS011;21476;51.652;7.852;2022-08-03T05:50:58;5.60;;;2.70;;
35372;SDS011;21476;51.652;7.852;2022-08-03T05:53:23;11.85;;;3.72;;
35372;SDS011;21476;51.652;7.852;2022-08-03T05:55:50;8.75;;;3.78;;
35372;SDS011;21476;51.652;7.852;2022-08-03T05:58:16;8.15;;;3.08;;
35372;SDS011;21476;51.652;7.852;2022-08-03T06:00:41;6.35;;;2.65;;
35372;SDS011;21476;51.652;7.852;2022-08-03T06:03:07;6.57;;;2.75;;
35372;SDS011;21476;51.652;7.852;2022-08-03T06:05:32;12.02;;;2.80;;
35372;SDS011;21476;51.652;7.852;2022-08-03T06:08:00;4.88;;;2.30;;
35372;SDS011;21476;51.652;7.852;2022-08-03T06:10:29;6.88;;;3.35;;
35372;SDS011;21476;51.652;7.852;2022-08-03T06:12:55;6.97;;;3.88;;
35372;SDS011;21476;51.652;7.852;2022-08-03T06:15:20;10.25;;;4.32;;
35372;SDS011;21476;51.652;7.852;2022-08-03T06:17:46;7.28;;;2.95;;
35372;SDS011;21476;51.652;7.852;2022-08-03T06:20:14;6.97;;;2.47;;
35372;SDS011;21476;51.652;7.852;2022-08-03T06:22:41;7.53;;;2.40;;
35372;SDS011;21476;51.652;7.852;2022-08-03T06:25:07;7.18;;;3.10;;
35372;SDS011;21476;51.652;7.852;2022-08-03T06:27:33;6.40;;;2.88;;
35372;SDS011;21476;51.652;7.852;2022-08-03T06:29:59;7.47;;;3.30;;
35372;SDS011;21476;51.652;7.852;2022-08-03T06:32:24;5.32;;;2.90;;
35372;SDS011;21476;51.652;7.852;2022-08-03T06:34:50;6.32;;;2.40;;
35372;SDS011;21476;51.652;7.852;2022-08-03T06:37:16;5.45;;;1.80;;
35372;SDS011;21476;51.652;7.852;2022-08-03T06:39:42;5.72;;;3.15;;
35372;SDS011;21476;51.652;7.852;2022-08-03T06:42:08;5.22;;;2.05;;
35372;SDS011;21476;51.652;7.852;2022-08-03T06:44:35;2.90;;;2.00;;
35372;SDS011;21476;51.652;7.852;2022-08-03T06:47:02;3.60;;;2.05;;
35372;SDS011;21476;51.652;7.852;2022-08-03T06:49:28;5.95;;;2.78;;
35372;SDS011;21476;51.652;7.852;2022-08-03T06:51:54;3.90;;;2.05;;
35372;SDS011;21476;51.652;7.852;2022-08-03T06:54:20;6.15;;;2.40;;
35372;SDS011;21476;51.652;7.852;2022-08-03T06:56:46;6.13;;;2.25;;
35372;SDS011;21476;51.652;7.852;2022-08-03T06:59:12;5.20;;;2.15;;
35372;SDS011;21476;51.652;7.852;2022-08-03T07:01:38;7.00;;;2.35;;
35372;SDS011;21476;51.652;7.852;2022-08-03T07:04:03;4.70;;;2.35;;
35372;SDS011;21476;51.652;7.852;2022-08-03T07:06:30;6.60;;;2.88;;
35372;SDS011;21476;51.652;7.852;2022-08-03T07:08:56;6.55;;;2.58;;
35372;SDS011;21476;51.652;7.852;2022-08-03T07:11:21;7.07;;;2.35;;
35372;SDS011;21476;51.652;7.852;2022-08-03T07:13:47;7.18;;;2.08;;
35372;SDS011;21476;51.652;7.852;2022-08-03T07:16:13;4.40;;;1.83;;
35372;SDS011;21476;51.652;7.852;2022-08-03T07:18:38;8.88;;;3.47;;
35372;SDS011;21476;51.652;7.852;2022-08-03T07:21:04;5.22;;;2.03;;
35372;SDS011;21476;51.652;7.852;2022-08-03T07:23:30;6.07;;;2.20;;
35372;SDS011;21476;51.652;7.852;2022-08-03T07:25:55;8.63;;;4.50;;
35372;SDS011;21476;51.652;7.852;2022-08-03T07:28:21;5.00;;;2.45;;
35372;SDS011;21476;51.652;7.852;2022-08-03T07:30:47;5.63;;;2.28;;
35372;SDS011;21476;51.652;7.852;2022-08-03T07:33:13;6.72;;;2.08;;
35372;SDS011;21476;51.652;7.852;2022-08-03T07:35:39;6.75;;;2.88;;
35372;SDS011;21476;51.652;7.852;2022-08-03T07:38:04;4.55;;;2.45;;
35372;SDS011;21476;51.652;7.852;2022-08-03T07:40:30;6.93;;;2.22;;
35372;SDS011;21476;51.652;7.852;2022-08-03T07:42:56;7.95;;;3.65;;
35372;SDS011;21476;51.652;7.852;2022-08-03T07:45:22;5.18;;;1.90;;
35372;SDS011;21476;51.652;7.852;2022-08-03T07:47:52;6.38;;;2.22;;
35372;SDS011;21476;51.652;7.852;2022-08-03T07:50:30;2.88;;;1.80;;
35372;SDS011;21476;51.652;7.852;2022-08-03T07:52:56;3.13;;;1.77;;
35372;SDS011;21476;51.652;7.852;2022-08-03T07:55:55;4.55;;;1.92;;
35372;SDS011;21476;51.652;7.852;2022-08-03T08:01:43;6.03;;;2.00;;
35372;SDS011;21476;51.652;7.852;2022-08-03T08:04:18;5.40;;;1.60;;
35372;SDS011;21476;51.652;7.852;2022-08-03T08:06:50;5.63;;;1.70;;
35372;SDS011;21476;51.652;7.852;2022-08-03T08:09:15;4.55;;;1.85;;
35372;SDS011;21476;51.652;7.852;2022-08-03T08:11:44;4.53;;;1.80;;
35372;SDS011;21476;51.652;7.852;2022-08-03T08:14:13;4.63;;;1.67;;
35372;SDS011;21476;51.652;7.852;2022-08-03T08:16:46;4.38;;;2.08;;
35372;SDS011;21476;51.652;7.852;2022-08-03T08:19:13;6.50;;;2.00;;
35372;SDS011;21476;51.652;7.852;2022-08-03T08:21:43;4.40;;;1.60;;
35372;SDS011;21476;51.652;7.852;2022-08-03T08:24:12;7.95;;;2.00;;
35372;SDS011;21476;51.652;7.852;2022-08-03T08:26:58;3.47;;;1.80;;
35372;SDS011;21476;51.652;7.852;2022-08-03T08:29:25;7.00;;;1.98;;
35372;SDS011;21476;51.652;7.852;2022-08-03T08:31:51;10.57;;;2.25;;
35372;SDS011;21476;51.652;7.852;2022-08-03T08:34:31;5.10;;;1.88;;
35372;SDS011;21476;51.652;7.852;2022-08-03T08:36:56;5.03;;;2.10;;
35372;SDS011;21476;51.652;7.852;2022-08-03T08:39:25;6.85;;;2.70;;
35372;SDS011;21476;51.652;7.852;2022-08-03T08:41:56;3.92;;;1.95;;
35372;SDS011;21476;51.652;7.852;2022-08-03T08:44:22;5.53;;;2.15;;
35372;SDS011;21476;51.652;7.852;2022-08-03T08:46:50;5.30;;;2.33;;
35372;SDS011;21476;51.652;7.852;2022-08-03T08:49:20;6.30;;;2.30;;
35372;SDS011;21476;51.652;7.852;2022-08-03T08:51:56;4.65;;;1.95;;
35372;SDS011;21476;51.652;7.852;2022-08-03T08:54:23;2.80;;;1.63;;
35372;SDS011;21476;51.652;7.852;2022-08-03T08:56:53;4.43;;;2.05;;
35372;SDS011;21476;51.652;7.852;2022-08-03T08:59:26;4.57;;;2.00;;
35372;SDS011;21476;51.652;7.852;2022-08-03T09:01:56;5.78;;;2.05;;
35372;SDS011;21476;51.652;7.852;2022-08-03T09:04:30;4.47;;;1.95;;
35372;SDS011;21476;51.652;7.852;2022-08-03T09:06:57;5.30;;;2.10;;
35372;SDS011;21476;51.652;7.852;2022-08-03T09:09:22;5.95;;;1.90;;
35372;SDS011;21476;51.652;7.852;2022-08-03T09:11:56;9.20;;;3.65;;
35372;SDS011;21476;51.652;7.852;2022-08-03T09:14:29;5.38;;;3.20;;
35372;SDS011;21476;51.652;7.852;2022-08-03T09:16:58;5.70;;;2.10;;
35372;SDS011;21476;51.652;7.852;2022-08-03T09:19:30;5.60;;;2.40;;
35372;SDS011;21476;51.652;7.852;2022-08-03T09:22:18;5.70;;;2.85;;
35372;SDS011;21476;51.652;7.852;2022-08-03T09:27:21;4.97;;;2.28;;
35372;SDS011;21476;51.652;7.852;2022-08-03T09:29:51;4.00;;;2.05;;
35372;SDS011;21476;51.652;7.852;2022-08-03T09:32:38;10.40;;;3.33;;
35372;SDS011;21476;51.652;7.852;2022-08-03T09:35:04;6.38;;;2.50;;
35372;SDS011;21476;51.652;7.852;2022-08-03T09:37:30;6.00;;;2.22;;
35372;SDS011;21476;51.652;7.852;2022-08-03T09:39:59;7.72;;;3.83;;
35372;SDS011;21476;51.652;7.852;2022-08-03T09:42:32;4.53;;;2.15;;
35372;SDS011;21476;51.652;7.852;2022-08-03T09:45:02;5.18;;;2.03;;
35372;SDS011;21476;51.652;7.852;2022-08-03T09:47:38;6.30;;;2.53;;
35372;SDS011;21476;51.652;7.852;2022-08-03T09:50:07;5.78;;;2.47;;
35372;SDS011;21476;51.652;7.852;2022-08-03T09:52:34;9.82;;;2.80;;
35372;SDS011;21476;51.652;7.852;2022-08-03T09:55:07;4.97;;;2.83;;
35372;SDS011;21476;51.652;7.852;2022-08-03T09:57:47;5.60;;;2.35;;
35372;SDS011;21476;51.652;7.852;2022-08-03T10:00:13;5.45;;;2.38;;
35372;SDS011;21476;51.652;7.852;2022-08-03T10:02:41;6.07;;;3.13;;
35372;SDS011;21476;51.652;7.852;2022-08-03T10:05:12;5.03;;;2.58;;
35372;SDS011;21476;51.652;7.852;2022-08-03T10:07:41;9.18;;;3.22;;
35372;SDS011;21476;51.652;7.852;2022-08-03T10:10:11;4.97;;;2.25;;
35372;SDS011;21476;51.652;7.852;2022-08-03T10:12:39;6.63;;;2.22;;
35372;SDS011;21476;51.652;7.852;2022-08-03T10:15:08;5.10;;;2.17;;
35372;SDS011;21476;51.652;7.852;2022-08-03T10:17:37;3.88;;;2.05;;
35372;SDS011;21476;51.652;7.852;2022-08-03T10:20:04;8.07;;;2.60;;
35372;SDS011;21476;51.652;7.852;2022-08-03T10:22:37;6.32;;;2.00;;
35372;SDS011;21476;51.652;7.852;2022-08-03T10:25:08;4.30;;;2.25;;
35372;SDS011;21476;51.652;7.852;2022-08-03T10:28:12;5.70;;;2.38;;
35372;SDS011;21476;51.652;7.852;2022-08-03T10:30:43;7.53;;;2.17;;
35372;SDS011;21476;51.652;7.852;2022-08-03T10:33:17;4.85;;;1.85;;
35372;SDS011;21476;51.652;7.852;2022-08-03T10:35:59;6.43;;;2.17;;
35372;SDS011;21476;51.652;7.852;2022-08-03T10:38:39;6.90;;;1.60;;
35372;SDS011;21476;51.652;7.852;2022-08-03T10:41:11;5.22;;;2.15;;
35372;SDS011;21476;51.652;7.852;2022-08-03T10:43:48;9.15;;;2.13;;
35372;SDS011;21476;51.652;7.852;2022-08-03T10:46:18;6.82;;;2.30;;
35372;SDS011;21476;51.652;7.852;2022-08-03T10:48:47;3.88;;;1.95;;
35372;SDS011;21476;51.652;7.852;2022-08-03T10:51:19;3.72;;;1.67;;
35372;SDS011;21476;51.652;7.852;2022-08-03T10:53:45;3.22;;;1.77;;
35372;SDS011;21476;51.652;7.852;2022-08-03T11:01:54;4.70;;;2.20;;
35372;SDS011;21476;51.652;7.852;2022-08-03T11:04:33;5.50;;;2.88;;
35372;SDS011;21476;51.652;7.852;2022-08-03T11:09:52;3.97;;;1.83;;
35372;SDS011;21476;51.652;7.852;2022-08-03T11:12:26;3.67;;;1.88;;
35372;SDS011;21476;51.652;7.852;2022-08-03T11:14:54;6.18;;;2.17;;
35372;SDS011;21476;51.652;7.852;2022-08-03T11:17:21;5.13;;;2.05;;
35372;SDS011;21476;51.652;7.852;2022-08-03T11:19:48;3.85;;;1.77;;
35372;SDS011;21476;51.652;7.852;2022-08-03T11:22:18;4.00;;;1.70;;
35372;SDS011;21476;51.652;7.852;2022-08-03T11:45:31;4.78;;;2.10;;
35372;SDS011;21476;51.652;7.852;2022-08-03T11:47:56;6.63;;;1.90;;
35372;SDS011;21476;51.652;7.852;2022-08-03T11:50:34;4.25;;;1.70;;
35372;SDS011;21476;51.652;7.852;2022-08-03T11:53:02;4.05;;;1.77;;
35372;SDS011;21476;51.652;7.852;2022-08-03T11:55:29;6.97;;;2.30;;
35372;SDS011;21476;51.652;7.852;2022-08-03T11:57:57;5.90;;;1.88;;
35372;SDS011;21476;51.652;7.852;2022-08-03T12:00:27;5.97;;;2.13;;
35372;SDS011;21476;51.652;7.852;2022-08-03T12:05:38;4.38;;;1.95;;
35372;SDS011;21476;51.652;7.852;2022-08-03T12:08:06;3.65;;;1.77;;
35372;SDS011;21476;51.652;7.852;2022-08-03T12:10:33;6.28;;;2.28;;
35372;SDS011;21476;51.652;7.852;2022-08-03T12:13:01;4.85;;;1.88;;
35372;SDS011;21476;51.652;7.852;2022-08-03T12:15:30;4.43;;;2.03;;
35372;SDS011;21476;51.652;7.852;2022-08-03T12:18:16;5.78;;;2.10;;
35372;SDS011;21476;51.652;7.852;2022-08-03T12:20:42;6.93;;;2.55;;
35372;SDS011;21476;51.652;7.852;2022-08-03T12:23:09;8.57;;;2.47;;
35372;SDS011;21476;51.652;7.852;2022-08-03T12:25:37;7.10;;;2.10;;
35372;SDS011;21476;51.652;7.852;2022-08-03T12:28:05;8.88;;;2.25;;
35372;SDS011;21476;51.652;7.852;2022-08-03T12:30:43;5.28;;;2.10;;
35372;SDS011;21476;51.652;7.852;2022-08-03T12:33:14;4.72;;;1.90;;
35372;SDS011;21476;51.652;7.852;2022-08-03T12:36:11;4.82;;;1.73;;
35372;SDS011;21476;51.652;7.852;2022-08-03T12:38:37;4.30;;;1.80;;
35372;SDS011;21476;51.652;7.852;2022-08-03T12:41:10;5.32;;;1.95;;
35372;SDS011;21476;51.652;7.852;2022-08-03T12:43:46;6.22;;;1.70;;
35372;SDS011;21476;51.652;7.852;2022-08-03T12:46:14;3.95;;;1.75;;
35372;SDS011;21476;51.652;7.852;2022-08-03T12:48:59;6.88;;;1.95;;
35372;SDS011;21476;51.652;7.852;2022-08-03T12:52:16;7.68;;;1.77;;
35372;SDS011;21476;51.652;7.852;2022-08-03T12:54:17;6.07;;;1.50;;
35372;SDS011;21476;51.652;7.852;2022-08-03T12:56:57;5.18;;;1.60;;
35372;SDS011;21476;51.652;7.852;2022-08-03T12:59:24;3.30;;;1.30;;
35372;SDS011;21476;51.652;7.852;2022-08-03T13:01:50;5.20;;;1.80;;
35372;SDS011;21476;51.652;7.852;2022-08-03T13:04:30;4.63;;;1.80;;
35372;SDS011;21476;51.652;7.852;2022-08-03T13:07:03;5.43;;;1.63;;
35372;SDS011;21476;51.652;7.852;2022-08-03T13:09:39;6.90;;;1.88;;
35372;SDS011;21476;51.652;7.852;2022-08-03T13:12:16;4.88;;;1.30;;
35372;SDS011;21476;51.652;7.852;2022-08-03T13:14:45;4.35;;;1.42;;
35372;SDS011;21476;51.652;7.852;2022-08-03T13:17:12;5.20;;;1.98;;
35372;SDS011;21476;51.652;7.852;2022-08-03T13:19:39;7.07;;;1.75;;
35372;SDS011;21476;51.652;7.852;2022-08-03T13:22:15;10.05;;;7.28;;
35372;SDS011;21476;51.652;7.852;2022-08-03T13:24:52;8.88;;;4.97;;
35372;SDS011;21476;51.652;7.852;2022-08-03T13:27:30;3.72;;;1.85;;
35372;SDS011;21476;51.652;7.852;2022-08-03T13:29:57;6.75;;;1.90;;
35372;SDS011;21476;51.652;7.852;2022-08-03T13:32:23;8.68;;;2.03;;
35372;SDS011;21476;51.652;7.852;2022-08-03T13:34:49;5.07;;;1.98;;
35372;SDS011;21476;51.652;7.852;2022-08-03T13:37:14;9.52;;;1.60;;
35372;SDS011;21476;51.652;7.852;2022-08-03T13:39:41;6.22;;;2.42;;
35372;SDS011;21476;51.652;7.852;2022-08-03T13:42:07;5.93;;;1.70;;
35372;SDS011;21476;51.652;7.852;2022-08-03T13:44:32;7.00;;;1.73;;
35372;SDS011;21476;51.652;7.852;2022-08-03T13:47:01;5.50;;;1.77;;
35372;SDS011;21476;51.652;7.852;2022-08-03T13:49:27;5.13;;;2.17;;
35372;SDS011;21476;51.652;7.852;2022-08-03T13:51:54;4.15;;;1.70;;
35372;SDS011;21476;51.652;7.852;2022-08-03T13:54:23;5.57;;;1.80;;
35372;SDS011;21476;51.652;7.852;2022-08-03T13:56:51;5.95;;;2.40;;
35372;SDS011;21476;51.652;7.852;2022-08-03T13:59:19;5.85;;;2.08;;
35372;SDS011;21476;51.652;7.852;2022-08-03T14:01:49;8.15;;;3.40;;
35372;SDS011;21476;51.652;7.852;2022-08-03T14:04:16;5.57;;;2.28;;
35372;SDS011;21476;51.652;7.852;2022-08-03T14:06:42;6.35;;;2.22;;
35372;SDS011;21476;51.652;7.852;2022-08-03T14:09:09;8.80;;;3.42;;
35372;SDS011;21476;51.652;7.852;2022-08-03T14:11:35;7.38;;;1.90;;
35372;SDS011;21476;51.652;7.852;2022-08-03T14:14:01;5.50;;;1.55;;
35372;SDS011;21476;51.652;7.852;2022-08-03T14:16:27;5.22;;;1.90;;
35372;SDS011;21476;51.652;7.852;2022-08-03T14:18:52;5.53;;;1.75;;
35372;SDS011;21476;51.652;7.852;2022-08-03T14:21:18;5.53;;;1.67;;
35372;SDS011;21476;51.652;7.852;2022-08-03T14:23:44;6.40;;;1.55;;
35372;SDS011;21476;51.652;7.852;2022-08-03T14:26:09;8.60;;;2.28;;
35372;SDS011;21476;51.652;7.852;2022-08-03T14:28:36;3.92;;;1.63;;
35372;SDS011;21476;51.652;7.852;2022-08-03T14:31:02;9.35;;;1.77;;
35372;SDS011;21476;51.652;7.852;2022-08-03T14:33:28;3.67;;;1.40;;
35372;SDS011;21476;51.652;7.852;2022-08-03T14:35:54;6.75;;;1.70;;
35372;SDS011;21476;51.652;7.852;2022-08-03T14:38:20;4.78;;;1.58;;
35372;SDS011;21476;51.652;7.852;2022-08-03T14:40:46;4.68;;;1.90;;
35372;SDS011;21476;51.652;7.852;2022-08-03T14:43:11;10.15;;;1.98;;
35372;SDS011;21476;51.652;7.852;2022-08-03T14:45:38;7.40;;;1.65;;
35372;SDS011;21476;51.652;7.852;2022-08-03T14:48:04;5.18;;;1.67;;
35372;SDS011;21476;51.652;7.852;2022-08-03T14:50:30;6.95;;;1.60;;
35372;SDS011;21476;51.652;7.852;2022-08-03T14:52:56;5.65;;;1.73;;
35372;SDS011;21476;51.652;7.852;2022-08-03T14:55:22;9.88;;;1.95;;
35372;SDS011;21476;51.652;7.852;2022-08-03T14:57:47;6.05;;;1.55;;
35372;SDS011;21476;51.652;7.852;2022-08-03T15:00:13;7.85;;;2.80;;
35372;SDS011;21476;51.652;7.852;2022-08-03T15:02:39;6.15;;;3.30;;
35372;SDS011;21476;51.652;7.852;2022-08-03T15:05:05;8.02;;;1.67;;
35372;SDS011;21476;51.652;7.852;2022-08-03T15:07:32;4.97;;;1.92;;
35372;SDS011;21476;51.652;7.852;2022-08-03T15:09:57;4.57;;;1.60;;
35372;SDS011;21476;51.652;7.852;2022-08-03T15:12:23;3.83;;;1.25;;
35372;SDS011;21476;51.652;7.852;2022-08-03T15:14:49;8.68;;;1.85;;
35372;SDS011;21476;51.652;7.852;2022-08-03T15:17:15;3.88;;;1.33;;
35372;SDS011;21476;51.652;7.852;2022-08-03T15:19:41;8.60;;;1.40;;
35372;SDS011;21476;51.652;7.852;2022-08-03T15:22:07;5.70;;;1.70;;
35372;SDS011;21476;51.652;7.852;2022-08-03T15:24:32;7.95;;;1.98;;
35372;SDS011;21476;51.652;7.852;2022-08-03T15:26:58;4.65;;;1.80;;
35372;SDS011;21476;51.652;7.852;2022-08-03T15:29:24;5.15;;;1.38;;
35372;SDS011;21476;51.652;7.852;2022-08-03T15:31:50;6.20;;;1.55;;
35372;SDS011;21476;51.652;7.852;2022-08-03T15:34:16;4.03;;;1.73;;
35372;SDS011;21476;51.652;7.852;2022-08-03T15:36:42;4.22;;;1.65;;
35372;SDS011;21476;51.652;7.852;2022-08-03T15:39:08;3.78;;;1.48;;
35372;SDS011;21476;51.652;7.852;2022-08-03T15:41:33;6.00;;;2.38;;